Time;durP1;ratioP1;P1;durP2;ratioP2;P2;SDS_P1;SDS_P2;PMS_P1;PMS_P2;Temp;Humidity;BMP_temperature;BMP_pressure;BME280_temperature;BME280_humidity;BME280_pressure;Samples;Min_cycle;Max_cycle;Signal;HPM_P1;HPM_P2
2022/09/12 00:02:15;;;;;;;6.80;4.10;;;;;;;11.62;100.00;100064.01;657885;1278;139560;-87
2022/09/12 00:17:18;;;;;;;8.20;4.50;;;;;;;11.65;100.00;100063.91;657940;1278;139317;-85
2022/09/12 00:32:21;;;;;;;8.40;3.70;;;;;;;11.62;100.00;100066.02;657911;1277;139396;-87
2022/09/12 00:47:31;;;;;;;9.30;3.60;;;;;;;11.48;100.00;100061.92;657508;1277;139356;-86
2022/09/12 01:02:34;;;;;;;4.20;2.80;;;;;;;11.22;100.00;100054.58;657871;1277;139720;-86
2022/09/12 01:18:12;;;;;;;5.90;3.40;;;;;;;11.15;100.00;100061.64;657358;1277;140281;-86
2022/09/12 01:33:33;;;;;;;5.30;3.60;;;;;;;11.13;100.00;100060.27;657422;1277;139182;-87
2022/09/12 01:48:44;;;;;;;9.30;3.90;;;;;;;11.08;100.00;100060.27;657564;1277;139651;-85
2022/09/12 02:03:57;;;;;;;7.30;3.60;;;;;;;11.02;100.00;100068.50;657183;1280;139234;-86
2022/09/12 02:19:11;;;;;;;13.40;7.00;;;;;;;10.99;100.00;100076.42;657419;1278;139149;-87
2022/09/12 02:34:48;;;;;;;9.10;4.00;;;;;;;10.95;100.00;100079.30;657490;1279;139350;-86
2022/09/12 02:49:52;;;;;;;10.50;5.90;;;;;;;10.85;100.00;100076.89;657367;1279;139243;-86
2022/09/12 03:05:25;;;;;;;8.20;4.70;;;;;;;10.79;100.00;100084.15;656980;1278;139431;-86
2022/09/12 03:20:48;;;;;;;13.40;7.80;;;;;;;10.78;100.00;100092.18;655749;1278;139985;-87
2022/09/12 03:35:52;;;;;;;15.70;8.20;;;;;;;10.73;100.00;100102.40;655810;1277;139549;-87
2022/09/12 03:50:59;;;;;;;7.30;4.50;;;;;;;10.68;100.00;100112.38;656405;1277;139429;-86
2022/09/12 04:06:02;;;;;;;6.40;4.10;;;;;;;10.73;100.00;100119.92;655623;1277;141894;-86
2022/09/12 04:21:08;;;;;;;11.50;5.30;;;;;;;10.76;100.00;100137.64;656370;1277;139300;-87
2022/09/12 04:36:16;;;;;;;11.60;4.90;;;;;;;10.75;100.00;100149.30;657833;1277;1514547;-88
2022/09/12 04:51:26;;;;;;;11.30;4.00;;;;;;;10.78;100.00;100152.99;661880;1278;139846;-87
2022/09/12 05:06:33;;;;;;;18.60;6.80;;;;;;;10.86;100.00;100153.78;665659;1277;139620;-87
2022/09/12 05:21:36;;;;;;;18.10;7.00;;;;;;;11.03;100.00;100157.44;657574;1277;139527;-88
2022/09/12 05:36:40;;;;;;;7.20;4.10;;;;;;;11.35;100.00;100170.56;656992;1278;139291;-89
2022/09/12 05:51:44;;;;;;;28.90;12.60;;;;;;;11.74;100.00;100163.47;657200;1277;139209;-88
2022/09/12 06:06:49;;;;;;;11.30;4.80;;;;;;;12.38;100.00;100172.94;658128;1277;139646;-86
2022/09/12 06:21:52;;;;;;;6.50;3.60;;;;;;;13.16;100.00;100182.55;656877;1277;140203;-87
2022/09/12 06:36:56;;;;;;;6.40;3.20;;;;;;;13.84;100.00;100180.75;658210;1277;139388;-88
2022/09/12 06:52:00;;;;;;;5.20;2.80;;;;;;;14.91;100.00;100186.91;655946;1277;140240;-90
2022/09/12 07:07:04;;;;;;;5.00;3.00;;;;;;;16.07;100.00;100197.38;660168;1277;139896;-91
2022/09/12 07:22:07;;;;;;;4.40;2.10;;;;;;;17.26;100.00;100206.36;660837;1277;140297;-90
2022/09/12 07:37:11;;;;;;;5.10;2.40;;;;;;;18.11;99.71;100219.89;657240;1277;140040;-90
2022/09/12 07:52:14;;;;;;;8.10;2.40;;;;;;;18.80;96.31;100227.58;662876;1277;138895;-91
2022/09/12 08:07:18;;;;;;;6.50;2.10;;;;;;;19.13;88.50;100241.86;660668;1277;140533;-90
2022/09/12 08:22:21;;;;;;;5.20;1.90;;;;;;;19.35;87.17;100253.56;657548;1277;138969;-89
2022/09/12 08:37:28;;;;;;;3.90;2.30;;;;;;;19.00;84.63;100261.42;657128;1277;139291;-88
2022/09/12 08:53:01;;;;;;;5.70;2.60;;;;;;;18.72;83.27;100266.66;657104;1277;140326;-89
2022/09/12 09:08:34;;;;;;;3.00;1.90;;;;;;;18.66;82.55;100271.73;656619;1278;139623;-89
2022/09/12 09:23:43;;;;;;;4.10;2.10;;;;;;;19.13;81.33;100273.69;656572;1277;138692;-89
2022/09/12 09:39:05;;;;;;;7.40;1.80;;;;;;;19.82;79.73;100282.70;655518;1277;139174;-87
2022/09/12 09:54:48;;;;;;;3.70;2.00;;;;;;;20.05;78.35;100273.98;656709;1277;138936;-88
2022/09/12 10:10:16;;;;;;;2.30;1.70;;;;;;;19.69;77.33;100278.88;655810;1277;138595;-87
2022/09/12 10:25:24;;;;;;;4.10;2.10;;;;;;;19.19;77.78;100276.27;655863;1277;138440;-87
2022/09/12 10:40:38;;;;;;;4.00;2.30;;;;;;;19.54;78.17;100282.48;655818;1277;139038;-87
2022/09/12 10:56:07;;;;;;;4.70;1.90;;;;;;;20.69;75.92;100281.74;655868;1277;139988;-88
2022/09/12 11:11:55;;;;;;;4.10;1.70;;;;;;;21.32;72.81;100294.89;655688;1278;138888;-89
2022/09/12 11:27:29;;;;;;;3.30;1.50;;;;;;;23.13;69.94;100287.87;658149;1279;138461;-88
2022/09/12 11:42:37;;;;;;;5.30;2.50;;;;;;;22.77;65.49;100285.36;660211;1278;139361;-88
2022/09/12 11:57:40;;;;;;;6.00;2.00;;;;;;;21.37;67.11;100284.86;664794;1278;139016;-86
2022/09/12 12:12:45;;;;;;;3.60;1.90;;;;;;;23.22;64.34;100275.85;658043;1278;138289;-87
2022/09/12 12:27:53;;;;;;;3.70;1.70;;;;;;;22.53;63.84;100279.59;657743;1279;138709;-86
2022/09/12 12:43:02;;;;;;;4.50;2.00;;;;;;;21.12;65.87;100296.07;659566;1277;138237;-87
2022/09/12 12:58:18;;;;;;;11.80;4.30;;;;;;;20.30;68.72;100293.34;658816;1278;138522;-86
2022/09/12 13:13:27;;;;;;;8.70;4.90;;;;;;;20.83;69.74;100293.04;657033;1279;138545;-88
2022/09/12 13:28:31;;;;;;;4.00;2.30;;;;;;;21.89;68.97;100302.04;656911;1279;138360;-88
2022/09/12 13:43:40;;;;;;;2.90;1.80;;;;;;;22.99;67.91;100298.47;657286;1278;139645;-87
2022/09/12 13:58:56;;;;;;;5.70;3.50;;;;;;;23.71;63.14;100294.50;661418;1277;138679;-88
2022/09/12 14:14:05;;;;;;;4.00;2.60;;;;;;;22.42;61.93;100289.67;670747;1278;139312;-89
2022/09/12 14:29:13;;;;;;;12.70;9.40;;;;;;;21.59;62.23;100291.07;672206;1279;139665;-88
2022/09/12 14:44:22;;;;;;;14.50;9.30;;;;;;;20.85;63.72;100292.77;670008;1278;138372;-87
2022/09/12 14:59:39;;;;;;;7.80;4.60;;;;;;;20.79;65.14;100297.80;668454;1280;138934;-87
2022/09/12 15:14:42;;;;;;;9.80;4.80;;;;;;;20.24;65.80;100303.40;668869;1280;139105;-85
2022/09/12 15:29:46;;;;;;;8.40;2.80;;;;;;;21.50;66.79;100303.80;668159;1279;138298;-87
2022/09/12 15:44:52;;;;;;;6.30;3.80;;;;;;;28.82;59.58;100299.44;661219;1280;139227;-87
2022/09/12 15:59:56;;;;;;;8.40;3.60;;;;;;;28.11;55.52;100310.91;662423;1278;138697;-85
2022/09/12 16:15:00;;;;;;;9.20;3.30;;;;;;;34.09;49.06;100310.50;661925;1278;138814;-87
2022/09/12 16:30:06;;;;;;;9.00;6.40;;;;;;;30.74;47.40;100311.41;656254;1277;138983;-86
2022/09/12 16:45:11;;;;;;;8.00;4.40;;;;;;;23.77;53.90;100300.67;655329;1278;1797036;-86
2022/09/12 17:00:15;;;;;;;25.90;13.00;;;;;;;20.84;59.16;100296.75;655436;1278;139602;-86
2022/09/12 17:15:19;;;;;;;55.70;29.00;;;;;;;19.23;63.06;100299.69;655915;1279;138578;-88
2022/09/12 17:30:23;;;;;;;51.30;25.60;;;;;;;18.09;66.92;100303.42;657496;1280;138587;-88
2022/09/12 17:45:28;;;;;;;148.50;67.40;;;;;;;17.08;69.22;100307.27;656932;1278;138678;-88
2022/09/12 18:16:09;;;;;;;89.80;48.30;;;;;;;15.40;75.14;100313.13;660851;1278;139658;-89
2022/09/12 18:31:16;;;;;;;38.80;22.60;;;;;;;14.90;77.21;100309.77;662814;1277;139454;-88
2022/09/12 18:46:22;;;;;;;54.70;27.60;;;;;;;14.46;80.48;100320.30;661271;1279;139543;-88
2022/09/12 19:01:30;;;;;;;101.60;42.30;;;;;;;14.00;82.44;100323.44;662038;1279;140401;-88
2022/09/12 19:16:35;;;;;;;28.20;16.30;;;;;;;13.53;84.86;100324.63;662503;1278;141694;-88
2022/09/12 19:31:39;;;;;;;33.60;16.70;;;;;;;13.21;85.75;100315.52;666783;1277;140350;-86
2022/09/12 19:46:44;;;;;;;78.40;24.90;;;;;;;13.01;86.76;100312.14;661737;1278;139906;-87
2022/09/12 20:01:48;;;;;;;49.70;18.90;;;;;;;12.61;87.69;100304.98;657421;1277;140662;-89
2022/09/12 20:16:52;;;;;;;12.70;6.60;;;;;;;12.32;89.29;100303.13;657475;1278;139270;-86
2022/09/12 20:31:55;;;;;;;24.60;11.90;;;;;;;12.07;90.06;100295.90;657440;1278;140164;-87
2022/09/12 20:46:58;;;;;;;9.80;6.00;;;;;;;11.84;91.65;100290.05;656630;1277;139364;-86
2022/09/12 21:02:02;;;;;;;15.80;7.30;;;;;;;11.58;92.00;100294.55;656732;1277;139151;-89
2022/09/12 21:17:06;;;;;;;28.60;16.00;;;;;;;11.27;92.82;100287.21;656936;1278;139181;-88
2022/09/12 21:32:09;;;;;;;32.80;16.30;;;;;;;11.16;94.17;100270.01;656378;1277;139889;-86
2022/09/12 21:47:16;;;;;;;43.90;21.90;;;;;;;10.98;94.46;100271.61;656362;1278;139865;-87
2022/09/12 22:02:21;;;;;;;26.50;14.50;;;;;;;10.76;95.30;100267.27;656997;1277;139922;-86
2022/09/12 22:17:24;;;;;;;28.00;14.80;;;;;;;10.49;95.24;100253.39;657076;1277;139425;-87
2022/09/12 22:32:27;;;;;;;30.60;16.60;;;;;;;10.34;96.14;100249.80;657826;1278;143517;-87
2022/09/12 22:47:30;;;;;;;37.50;20.50;;;;;;;10.18;96.39;100254.83;656521;1277;139339;-87
2022/09/12 23:02:34;;;;;;;32.50;16.30;;;;;;;9.91;96.23;100251.06;655879;1279;139833;-88
2022/09/12 23:17:37;;;;;;;20.20;11.20;;;;;;;9.74;96.65;100250.24;655972;1277;140140;-86
2022/09/12 23:32:40;;;;;;;23.80;11.70;;;;;;;9.59;97.23;100228.59;656110;1277;139219;-88
2022/09/12 23:47:43;;;;;;;24.10;12.10;;;;;;;9.59;97.57;100222.18;656317;1278;139056;-88
